Nenana Municipal Airport Nenana US
ICAO: PANN
IATA:
Category: Medium
Scheduled Services:

Elevation: 362 ft
TransAlt. 18000 ft.

Airport Communications:
FAIRBANKS APP/DEP:125.35
ASOS:125.2
CTAF:122.1
FAIRBANKS RDO:122.5
TWEB:115.8

PANN Zoom In..

If you have problems with the map follow the link
https://www.worldairports.se/pages/airport.php?
ICAO=PANN

Runways:

(A) RW 04L length 4600 ft width 100 ft
---- / hdg 38

(B) RW 04R length 2520 ft width 60 ft
---- / hdg 38

(C) RW 22L length 2520 ft width 60 ft
---- / hdg 218

(D) RW 22R length 4600 ft width 100 ft
---- / hdg 218

Location; PANN
Day. 16 / Time. 10.53 Zulu
* Altimeter: 30.19
* Temperature: -09° c. -15.8°f.
* Wind from: 080° Speed 10 kn.
Dewpoint: -14° c.
Visibility: 10 Statute Miles.
Clouds: Clear (automated report).

PANN 161053Z AUTO 08010KT 10SM CLR M09/M14 A3019 RMK AO2 SLP236 T10891139 TSNO


Wind From 080°
Speed 10 kn.

 
 
jpsmedia.com for Web Design worldairports.se 2018   terms of use